createdAt,value
2022-11-27T00:01:17.533Z,102831.87
2022-11-27T00:03:46.594Z,102828.96
2022-11-27T00:06:23.056Z,102831.90
2022-11-27T00:08:51.555Z,102811.41
2022-11-27T00:11:22.624Z,102826.43
2022-11-27T00:13:51.504Z,102830.29
2022-11-27T00:16:20.566Z,102827.46
2022-11-27T00:18:49.255Z,102825.33
2022-11-27T00:21:19.293Z,102828.95
2022-11-27T00:23:47.481Z,102831.44
2022-11-27T00:26:15.796Z,102825.27
2022-11-27T00:28:44.084Z,102827.12
2022-11-27T00:31:20.741Z,102820.45
2022-11-27T00:33:49.367Z,102820.44
2022-11-27T00:36:18.201Z,102794.34
2022-11-27T00:38:47.229Z,102806.94
2022-11-27T00:41:17.166Z,102824.11
2022-11-27T00:43:45.990Z,102822.52
2022-11-27T00:46:15.457Z,102822.23
2022-11-27T00:48:43.833Z,102793.09
2022-11-27T00:51:14.119Z,102819.36
2022-11-27T00:53:42.811Z,102822.06
2022-11-27T00:56:18.455Z,102819.00
2022-11-27T00:58:47.196Z,102797.17
2022-11-27T01:01:18.171Z,102822.06
2022-11-27T01:03:47.068Z,102820.60
2022-11-27T01:06:15.892Z,102817.05
2022-11-27T01:08:44.427Z,102820.65
2022-11-27T01:11:17.902Z,102813.55
2022-11-27T01:13:46.660Z,102808.95
2022-11-27T01:16:16.359Z,102809.88
2022-11-27T01:18:45.334Z,102818.27
2022-11-27T01:21:14.571Z,102817.31
2022-11-27T01:23:42.995Z,102811.47
2022-11-27T01:26:12.160Z,102811.88
2022-11-27T01:28:40.494Z,102808.47
2022-11-27T01:31:11.740Z,102811.34
2022-11-27T01:33:40.454Z,102806.29
2022-11-27T01:36:08.937Z,102807.37
2022-11-27T01:38:37.226Z,102809.58
2022-11-27T01:41:26.182Z,102806.56
2022-11-27T01:43:56.534Z,102802.45
2022-11-27T01:46:33.725Z,102807.36
2022-11-27T01:49:20.779Z,102804.91
2022-11-27T01:51:48.894Z,102810.98
2022-11-27T01:54:17.343Z,102809.70
2022-11-27T01:56:48.885Z,102797.86
2022-11-27T01:59:18.298Z,102818.05
2022-11-27T02:05:05.797Z,102825.06
2022-11-27T02:07:34.182Z,102822.73
2022-11-27T02:10:02.645Z,102824.31
2022-11-27T02:12:36.592Z,102818.89
2022-11-27T02:15:30.820Z,102818.77
2022-11-27T02:18:11.304Z,102824.20
2022-11-27T02:20:48.684Z,102826.95
2022-11-27T02:23:36.368Z,102829.72
2022-11-27T02:26:07.455Z,102829.58
2022-11-27T02:28:38.608Z,102829.03
2022-11-27T02:31:13.097Z,102826.59
2022-11-27T02:33:45.421Z,102833.02
2022-11-27T02:36:22.485Z,102833.48
2022-11-27T02:38:55.977Z,102832.68
2022-11-27T02:41:27.499Z,102829.48
2022-11-27T02:43:56.606Z,102827.60
2022-11-27T02:46:26.805Z,102826.98
2022-11-27T02:49:06.744Z,102824.77
2022-11-27T02:51:42.137Z,102822.70
2022-11-27T02:54:13.802Z,102819.47
2022-11-27T02:56:43.678Z,102822.10
2022-11-27T02:59:13.956Z,102830.42
2022-11-27T03:01:45.122Z,102839.14
2022-11-27T03:04:17.626Z,102837.31
2022-11-27T03:06:48.509Z,102817.47
2022-11-27T03:09:19.763Z,102830.11
2022-11-27T03:11:48.014Z,102827.91
2022-11-27T03:14:16.950Z,102827.69
2022-11-27T03:17:05.923Z,102828.14
2022-11-27T03:19:40.464Z,102822.05
2022-11-27T03:22:08.702Z,102820.83
2022-11-27T03:24:37.023Z,102820.54
2022-11-27T03:27:05.571Z,102818.46
2022-11-27T03:29:33.727Z,102819.91
2022-11-27T03:32:02.550Z,102820.20
2022-11-27T03:34:31.309Z,102817.82
2022-11-27T03:36:59.670Z,102824.42
2022-11-27T03:39:28.103Z,102822.16
2022-11-27T03:41:56.068Z,102825.22
2022-11-27T03:44:33.522Z,102818.15
2022-11-27T03:47:10.873Z,102818.79
2022-11-27T03:49:44.916Z,102816.85
2022-11-27T03:52:18.843Z,102815.19
2022-11-27T03:54:53.480Z,102822.23
2022-11-27T03:57:43.639Z,102826.52
2022-11-27T04:00:12.372Z,102828.52
2022-11-27T04:02:41.866Z,102827.77
2022-11-27T04:05:10.572Z,102833.16
2022-11-27T04:07:38.720Z,102836.86
2022-11-27T04:10:07.503Z,102833.98
2022-11-27T04:12:35.528Z,102835.17
2022-11-27T04:15:03.922Z,102833.81
2022-11-27T04:17:31.976Z,102831.30
2022-11-27T04:20:00.052Z,102831.42
2022-11-27T04:22:28.066Z,102831.15
2022-11-27T04:24:56.092Z,102829.70
2022-11-27T04:27:24.092Z,102829.52
2022-11-27T04:29:52.111Z,102826.80
2022-11-27T04:32:20.099Z,102827.23
2022-11-27T04:34:48.075Z,102811.05
2022-11-27T04:37:16.039Z,102826.14
2022-11-27T04:39:44.120Z,102827.02
2022-11-27T04:42:12.178Z,102829.08
2022-11-27T04:44:40.450Z,102824.91
2022-11-27T04:47:08.651Z,102822.45
2022-11-27T04:49:36.679Z,102824.04
2022-11-27T04:52:04.725Z,102821.20
2022-11-27T04:54:32.707Z,102816.84
2022-11-27T04:57:00.726Z,102816.88
2022-11-27T04:59:28.969Z,102813.42
2022-11-27T05:01:56.942Z,102812.54
2022-11-27T05:04:25.426Z,102808.13
2022-11-27T05:06:53.467Z,102807.95
2022-11-27T05:09:21.530Z,102797.81
2022-11-27T05:11:49.591Z,102797.30
2022-11-27T05:14:22.695Z,102797.36
2022-11-27T05:16:52.055Z,102802.98
2022-11-27T05:19:21.101Z,102802.30
2022-11-27T05:21:49.674Z,102799.81
2022-11-27T05:24:18.738Z,102799.23
2022-11-27T05:26:47.150Z,102799.75
2022-11-27T05:29:15.493Z,102798.04
2022-11-27T05:31:43.676Z,102794.75
2022-11-27T05:34:11.677Z,102796.27
2022-11-27T05:36:39.654Z,102798.51
2022-11-27T05:39:08.184Z,102801.77
2022-11-27T05:41:36.670Z,102806.08
2022-11-27T05:44:05.238Z,102807.41
2022-11-27T05:46:33.488Z,102804.55
2022-11-27T05:49:01.553Z,102807.29
2022-11-27T05:51:29.574Z,102802.46
2022-11-27T05:53:57.631Z,102807.62
2022-11-27T05:56:25.619Z,102804.30
2022-11-27T05:58:53.839Z,102802.69
2022-11-27T06:01:22.287Z,102796.36
2022-11-27T06:03:50.367Z,102795.67
2022-11-27T06:06:19.566Z,102800.30
2022-11-27T06:08:47.823Z,102781.73
2022-11-27T06:11:17.823Z,102803.67
2022-11-27T06:13:46.707Z,102796.17
2022-11-27T06:16:16.082Z,102794.89
2022-11-27T06:18:44.151Z,102797.07
2022-11-27T06:21:13.610Z,102777.06
2022-11-27T06:23:42.407Z,102796.55
2022-11-27T06:26:18.593Z,102790.45
2022-11-27T06:28:47.533Z,102790.42
2022-11-27T06:31:18.314Z,102793.02
2022-11-27T06:33:50.747Z,102792.48
2022-11-27T06:36:19.487Z,102790.85
2022-11-27T06:38:47.459Z,102790.63
2022-11-27T06:41:19.782Z,102790.73
2022-11-27T06:43:48.204Z,102794.17
2022-11-27T06:46:17.555Z,102793.23
2022-11-27T06:48:47.018Z,102793.11
2022-11-27T06:51:16.526Z,102789.56
2022-11-27T06:53:44.945Z,102787.98
2022-11-27T06:56:14.224Z,102789.83
2022-11-27T06:58:42.640Z,102794.67
2022-11-27T07:01:12.996Z,102798.61
2022-11-27T07:03:42.456Z,102798.52
2022-11-27T07:06:12.680Z,102797.58
2022-11-27T07:08:41.262Z,102795.91
2022-11-27T07:11:18.574Z,102791.11
2022-11-27T07:13:47.875Z,102790.86
2022-11-27T07:16:16.604Z,102793.11
2022-11-27T07:18:49.129Z,102791.84
2022-11-27T07:21:17.486Z,102791.16
2022-11-27T07:23:46.169Z,102792.91
2022-11-27T07:26:15.381Z,102796.60
2022-11-27T07:28:43.952Z,102780.15
2022-11-27T07:31:12.960Z,102793.73
2022-11-27T07:33:41.151Z,102792.42
2022-11-27T07:36:16.490Z,102796.54
2022-11-27T07:38:45.221Z,102790.41
2022-11-27T07:41:13.746Z,102791.90
2022-11-27T07:43:42.639Z,102781.72
2022-11-27T07:46:12.079Z,102801.58
2022-11-27T07:48:40.281Z,102798.80
2022-11-27T07:51:09.476Z,102795.31
2022-11-27T07:53:38.457Z,102795.13
2022-11-27T07:56:07.218Z,102797.73
2022-11-27T07:58:35.218Z,102797.31
2022-11-27T08:01:06.945Z,102794.77
2022-11-27T08:03:35.045Z,102788.58
2022-11-27T08:06:03.218Z,102806.55
2022-11-27T08:08:31.226Z,102806.71
2022-11-27T08:10:59.216Z,102807.37
2022-11-27T08:13:27.217Z,102806.28
2022-11-27T08:15:58.966Z,102805.29
2022-11-27T08:18:26.982Z,102809.17
2022-11-27T08:20:54.974Z,102809.59
2022-11-27T08:23:23.001Z,102811.88
2022-11-27T08:25:51.068Z,102815.92
2022-11-27T08:28:19.118Z,102812.87
2022-11-27T08:30:55.210Z,102822.85
2022-11-27T08:33:23.225Z,102820.15
2022-11-27T08:35:51.532Z,102822.91
2022-11-27T08:38:20.107Z,102818.85
2022-11-27T08:40:55.447Z,102819.23
2022-11-27T08:43:23.947Z,102822.30
2022-11-27T08:45:52.599Z,102821.11
2022-11-27T08:48:21.241Z,102825.24
2022-11-27T08:50:50.004Z,102821.02
2022-11-27T08:53:18.347Z,102812.45
2022-11-27T08:55:46.346Z,102809.02
2022-11-27T08:58:14.606Z,102808.90
2022-11-27T09:00:42.671Z,102811.54
2022-11-27T09:03:11.588Z,102818.58
2022-11-27T09:05:42.731Z,102821.83
2022-11-27T09:08:13.630Z,102828.89
2022-11-27T09:10:41.578Z,102831.60
2022-11-27T09:13:09.534Z,102828.41
2022-11-27T09:15:37.610Z,102825.75
2022-11-27T09:18:05.691Z,102830.40
2022-11-27T09:20:33.654Z,102829.70
2022-11-27T09:23:02.676Z,102830.05
2022-11-27T09:25:30.635Z,102834.05
2022-11-27T09:27:58.635Z,102834.40
2022-11-27T09:30:26.648Z,102825.64
2022-11-27T09:32:54.648Z,102827.64
2022-11-27T09:35:22.771Z,102825.58
2022-11-27T09:37:50.886Z,102820.16
2022-11-27T09:40:18.918Z,102816.17
2022-11-27T09:42:56.411Z,102816.05
2022-11-27T09:45:27.297Z,102818.96
2022-11-27T09:47:58.686Z,102815.65
2022-11-27T09:50:37.570Z,102804.54
2022-11-27T09:53:11.560Z,102821.16
2022-11-27T09:55:43.324Z,102817.71
2022-11-27T09:58:16.822Z,102816.35
2022-11-27T10:00:45.718Z,102819.58
2022-11-27T10:03:14.836Z,102820.44
2022-11-27T10:05:48.685Z,102818.58
2022-11-27T10:08:43.217Z,102821.10
2022-11-27T10:11:31.712Z,102818.04
2022-11-27T10:14:17.437Z,102817.43
2022-11-27T10:17:00.221Z,102814.63
2022-11-27T10:19:46.875Z,102813.23
2022-11-27T10:22:19.484Z,102810.52
2022-11-27T10:25:04.360Z,102809.90
2022-11-27T10:27:39.680Z,102808.20
2022-11-27T10:30:18.760Z,102810.33
2022-11-27T10:32:56.685Z,102811.14
2022-11-27T10:35:27.147Z,102804.89
2022-11-27T10:38:07.073Z,102799.84
2022-11-27T10:40:38.671Z,102802.20
2022-11-27T10:43:13.489Z,102801.98
2022-11-27T10:46:03.945Z,102790.77
2022-11-27T10:48:33.477Z,102797.83
2022-11-27T10:51:01.785Z,102791.00
2022-11-27T10:53:32.083Z,102791.79
2022-11-27T10:56:12.193Z,102790.92
2022-11-27T10:58:43.048Z,102791.95
2022-11-27T11:01:14.050Z,102792.77
2022-11-27T11:03:42.558Z,102787.71
2022-11-27T11:06:30.535Z,102788.03
2022-11-27T11:09:04.253Z,102789.70
2022-11-27T11:11:33.536Z,102786.94
2022-11-27T11:14:01.774Z,102791.05
2022-11-27T11:16:35.132Z,102787.60
2022-11-27T11:19:04.124Z,102783.67
2022-11-27T11:21:33.765Z,102783.39
2022-11-27T11:24:08.359Z,102778.36
2022-11-27T11:26:40.700Z,102774.60
2022-11-27T11:29:24.018Z,102772.92
2022-11-27T11:31:54.796Z,102772.54
2022-11-27T11:34:28.399Z,102770.89
2022-11-27T11:36:58.588Z,102772.54
2022-11-27T11:39:28.314Z,102769.30
2022-11-27T11:41:57.478Z,102764.39
2022-11-27T11:44:48.183Z,102765.81
2022-11-27T11:47:20.026Z,102769.77
2022-11-27T11:49:48.249Z,102772.19
2022-11-27T11:52:22.307Z,102772.40
2022-11-27T11:54:56.828Z,102772.99
2022-11-27T11:57:25.269Z,102770.58
2022-11-27T12:00:01.685Z,102767.11
2022-11-27T12:02:39.257Z,102764.40
2022-11-27T12:05:10.388Z,102761.92
2022-11-27T12:07:56.820Z,102759.27
2022-11-27T12:10:30.695Z,102751.50
2022-11-27T12:13:08.990Z,102759.81
2022-11-27T12:16:01.325Z,102760.50
2022-11-27T12:18:43.108Z,102758.38
2022-11-27T12:21:14.089Z,102753.62
2022-11-27T12:23:59.016Z,102721.98
2022-11-27T12:26:46.071Z,102752.52
2022-11-27T12:29:23.462Z,102753.44
2022-11-27T12:31:52.436Z,102752.45
2022-11-27T12:34:27.379Z,102748.45
2022-11-27T12:36:58.526Z,102746.79
2022-11-27T12:39:33.439Z,102747.14
2022-11-27T12:42:08.580Z,102747.02
2022-11-27T12:44:45.208Z,102742.33
2022-11-27T12:47:24.599Z,102721.14
2022-11-27T12:50:03.158Z,102743.56
2022-11-27T12:52:40.907Z,102746.17
2022-11-27T12:55:13.443Z,102746.33
2022-11-27T12:57:47.070Z,102742.86
2022-11-27T13:00:19.755Z,102738.75
2022-11-27T13:02:59.310Z,102736.54
2022-11-27T13:05:32.622Z,102736.49
2022-11-27T13:08:19.137Z,102736.66
2022-11-27T13:10:54.440Z,102734.27
2022-11-27T13:13:22.602Z,102699.39
2022-11-27T13:15:56.112Z,102736.36
2022-11-27T13:18:34.344Z,102733.52
2022-11-27T13:21:04.601Z,102731.23
2022-11-27T13:23:33.564Z,102732.02
2022-11-27T13:26:04.181Z,102730.63
2022-11-27T13:28:38.507Z,102729.31
2022-11-27T13:31:08.404Z,102729.50
2022-11-27T13:33:41.588Z,102728.36
2022-11-27T13:36:30.019Z,102727.21
2022-11-27T13:39:02.115Z,102728.08
2022-11-27T13:41:40.576Z,102726.88
2022-11-27T13:44:26.500Z,102723.02
2022-11-27T13:46:56.652Z,102722.70
2022-11-27T13:49:28.563Z,102720.84
2022-11-27T13:52:05.981Z,102717.00
2022-11-27T13:54:34.294Z,102720.73
2022-11-27T13:57:12.851Z,102719.86
2022-11-27T13:59:41.379Z,102721.65
2022-11-27T14:02:09.724Z,102724.52
2022-11-27T14:04:51.760Z,102729.42
2022-11-27T14:07:24.617Z,102727.90
2022-11-27T14:09:54.734Z,102730.27
2022-11-27T14:12:22.958Z,102726.75
2022-11-27T14:15:18.161Z,102725.58
2022-11-27T14:17:48.591Z,102734.41
2022-11-27T14:20:16.937Z,102732.53
2022-11-27T14:23:07.520Z,102700.05
2022-11-27T14:25:36.613Z,102730.38
2022-11-27T14:28:26.545Z,102729.54
2022-11-27T14:30:58.641Z,102728.86
2022-11-27T14:33:31.443Z,102730.34
2022-11-27T14:36:02.739Z,102733.52
2022-11-27T14:38:32.326Z,102736.05
2022-11-27T14:41:08.601Z,102738.21
2022-11-27T14:43:36.762Z,102739.20
2022-11-27T14:46:06.796Z,102741.45
2022-11-27T14:48:43.621Z,102741.80
2022-11-27T14:51:15.630Z,102746.36
2022-11-27T14:53:45.209Z,102744.43
2022-11-27T14:56:14.070Z,102743.14
2022-11-27T14:58:47.230Z,102741.70
2022-11-27T15:01:27.384Z,102736.98
2022-11-27T15:03:56.833Z,102738.48
2022-11-27T15:06:25.866Z,102738.20
2022-11-27T15:09:15.854Z,102738.64
2022-11-27T15:11:55.809Z,102741.40
2022-11-27T15:14:26.558Z,102738.77
2022-11-27T15:16:55.595Z,102734.16
2022-11-27T15:19:37.081Z,102736.05
2022-11-27T15:22:05.441Z,102730.21
2022-11-27T15:24:35.529Z,102731.82
2022-11-27T15:27:16.002Z,102731.73
2022-11-27T15:29:49.997Z,102729.89
2022-11-27T15:32:23.437Z,102732.23
2022-11-27T15:34:52.605Z,102731.50
2022-11-27T15:37:23.350Z,102722.17
2022-11-27T15:39:52.742Z,102730.94
2022-11-27T15:42:21.464Z,102731.58
2022-11-27T15:44:52.732Z,102729.98
2022-11-27T15:47:28.865Z,102725.91
2022-11-27T15:49:57.077Z,102722.68
2022-11-27T15:52:25.705Z,102729.42
2022-11-27T15:54:54.081Z,102729.61
2022-11-27T15:57:22.519Z,102732.80
2022-11-27T15:59:50.751Z,102735.42
2022-11-27T16:02:19.130Z,102738.24
2022-11-27T16:04:48.424Z,102735.11
2022-11-27T16:07:17.138Z,102737.91
2022-11-27T16:09:45.507Z,102720.59
2022-11-27T16:12:13.767Z,102732.70
2022-11-27T16:14:42.275Z,102726.91
2022-11-27T16:17:11.978Z,102726.73
2022-11-27T16:19:40.198Z,102725.84
2022-11-27T16:22:08.359Z,102727.04
2022-11-27T16:24:36.538Z,102724.65
2022-11-27T16:27:05.063Z,102725.46
2022-11-27T16:29:33.404Z,102707.83
2022-11-27T16:32:02.424Z,102727.10
2022-11-27T16:34:30.803Z,102702.92
2022-11-27T16:36:59.018Z,102730.61
2022-11-27T16:39:27.279Z,102728.47
2022-11-27T16:41:55.515Z,102726.25
2022-11-27T16:44:23.958Z,102726.61
2022-11-27T16:46:52.243Z,102724.02
2022-11-27T16:49:21.931Z,102724.50
2022-11-27T16:51:51.370Z,102727.10
2022-11-27T16:54:20.022Z,102710.08
2022-11-27T16:56:48.878Z,102721.75
2022-11-27T16:59:17.826Z,102721.41
2022-11-27T17:01:46.963Z,102721.63
2022-11-27T17:04:17.345Z,102706.05
2022-11-27T17:06:46.514Z,102721.16
2022-11-27T17:09:15.547Z,102718.66
2022-11-27T17:11:45.369Z,102721.41
2022-11-27T17:14:13.761Z,102720.63
2022-11-27T17:16:42.907Z,102701.01
2022-11-27T17:19:12.438Z,102712.89
2022-11-27T17:21:41.028Z,102712.73
2022-11-27T17:24:14.974Z,102712.59
2022-11-27T17:26:46.312Z,102707.93
2022-11-27T17:29:16.199Z,102709.67
2022-11-27T17:31:44.692Z,102707.66
2022-11-27T17:34:14.850Z,102705.60
2022-11-27T17:36:45.030Z,102706.66
2022-11-27T17:39:15.057Z,102704.33
2022-11-27T17:41:44.966Z,102703.17
2022-11-27T17:44:13.529Z,102693.91
2022-11-27T17:46:45.090Z,102703.29
2022-11-27T17:49:13.446Z,102693.52
2022-11-27T17:51:42.022Z,102706.58
2022-11-27T17:54:10.973Z,102700.52
2022-11-27T17:56:40.152Z,102698.93
2022-11-27T17:59:09.858Z,102696.61
2022-11-27T18:01:38.348Z,102694.52
2022-11-27T18:04:06.743Z,102690.41
2022-11-27T18:06:36.498Z,102680.34
2022-11-27T18:09:04.802Z,102687.32
2022-11-27T18:11:34.159Z,102686.58
2022-11-27T18:14:03.182Z,102690.98
2022-11-27T18:16:37.315Z,102695.03
2022-11-27T18:19:07.314Z,102693.45
2022-11-27T18:21:35.985Z,102696.95
2022-11-27T18:27:10.155Z,102692.59
2022-11-27T18:29:40.469Z,102688.73
2022-11-27T18:32:09.205Z,102688.63
2022-11-27T18:34:37.740Z,102685.55
2022-11-27T18:37:06.172Z,102680.59
2022-11-27T18:39:35.395Z,102678.04
2022-11-27T18:42:05.277Z,102673.50
2022-11-27T18:44:39.508Z,102669.59
2022-11-27T18:47:13.291Z,102671.59
2022-11-27T18:49:43.075Z,102666.31
2022-11-27T18:52:13.089Z,102669.55
2022-11-27T18:54:42.196Z,102671.12
2022-11-27T18:57:11.354Z,102673.61
2022-11-27T18:59:42.748Z,102673.47
2022-11-27T19:02:11.512Z,102672.70
2022-11-27T19:04:40.304Z,102672.44
2022-11-27T19:07:08.813Z,102673.48
2022-11-27T19:09:37.652Z,102676.04
2022-11-27T19:12:05.914Z,102675.68
2022-11-27T19:14:34.882Z,102674.52
2022-11-27T19:17:03.463Z,102680.31
2022-11-27T19:22:22.203Z,102677.97
2022-11-27T19:24:50.571Z,102671.83
2022-11-27T19:27:19.173Z,102673.38
2022-11-27T19:29:47.451Z,102671.35
2022-11-27T19:32:16.175Z,102671.12
2022-11-27T19:34:45.217Z,102672.83
2022-11-27T19:37:13.679Z,102676.22
2022-11-27T19:39:42.407Z,102676.42
2022-11-27T19:42:10.743Z,102678.36
2022-11-27T19:44:39.415Z,102663.47
2022-11-27T19:47:09.636Z,102683.58
2022-11-27T19:49:37.813Z,102685.48
2022-11-27T19:52:06.012Z,102683.26
2022-11-27T19:54:34.623Z,102682.60
2022-11-27T19:57:04.410Z,102685.44
2022-11-27T19:59:33.230Z,102684.43
2022-11-27T20:02:01.555Z,102682.38
2022-11-27T20:04:29.698Z,102681.18
2022-11-27T20:06:57.885Z,102685.29
2022-11-27T20:09:26.583Z,102687.36
2022-11-27T20:11:54.854Z,102684.75
2022-11-27T20:14:24.305Z,102682.25
2022-11-27T20:16:52.908Z,102682.16
2022-11-27T20:19:21.398Z,102684.57
2022-11-27T20:21:51.201Z,102686.81
2022-11-27T20:24:19.831Z,102685.36
2022-11-27T20:26:48.105Z,102682.48
2022-11-27T20:29:16.347Z,102675.55
2022-11-27T20:31:45.183Z,102675.63
2022-11-27T20:34:16.783Z,102676.17
2022-11-27T20:36:45.109Z,102674.90
2022-11-27T20:39:17.824Z,102667.42
2022-11-27T20:41:50.033Z,102662.17
2022-11-27T20:44:18.585Z,102664.82
2022-11-27T20:46:47.353Z,102645.64
2022-11-27T20:49:15.765Z,102660.52
2022-11-27T20:51:44.019Z,102661.45
2022-11-27T20:54:12.908Z,102658.70
2022-11-27T20:56:43.430Z,102627.19
2022-11-27T20:59:12.719Z,102654.41
2022-11-27T21:01:41.738Z,102638.36
2022-11-27T21:04:17.990Z,102653.66
2022-11-27T21:06:47.403Z,102649.77
2022-11-27T21:09:15.718Z,102645.58
2022-11-27T21:11:44.411Z,102649.57
2022-11-27T21:14:13.810Z,102649.96
2022-11-27T21:16:43.723Z,102651.02
2022-11-27T21:19:26.143Z,102648.04
2022-11-27T21:21:56.393Z,102649.48
2022-11-27T21:24:26.552Z,102651.65
2022-11-27T21:26:55.099Z,102652.50
2022-11-27T21:29:25.906Z,102652.86
2022-11-27T21:31:55.553Z,102654.66
2022-11-27T21:34:24.670Z,102653.25
2022-11-27T21:36:53.434Z,102651.06
2022-11-27T21:39:22.780Z,102651.76
2022-11-27T21:41:52.283Z,102636.44
2022-11-27T21:44:21.960Z,102648.84
2022-11-27T21:46:50.635Z,102651.92
2022-11-27T21:49:20.208Z,102635.03
2022-11-27T21:51:52.451Z,102648.05
2022-11-27T21:54:21.272Z,102649.53
2022-11-27T21:56:52.871Z,102649.99
2022-11-27T21:59:21.269Z,102652.77
2022-11-27T22:01:49.353Z,102657.73
2022-11-27T22:04:17.828Z,102654.33
2022-11-27T22:06:46.344Z,102646.15
2022-11-27T22:09:15.957Z,102652.52
2022-11-27T22:11:45.594Z,102655.66
2022-11-27T22:14:16.156Z,102654.44
2022-11-27T22:16:46.163Z,102652.75
2022-11-27T22:19:15.967Z,102655.70
2022-11-27T22:21:44.871Z,102651.30
2022-11-27T22:24:19.000Z,102650.99
2022-11-27T22:26:48.076Z,102652.63
2022-11-27T22:29:16.642Z,102639.41
2022-11-27T22:31:44.931Z,102654.77
2022-11-27T22:34:13.459Z,102656.08
2022-11-27T22:36:42.232Z,102642.70
2022-11-27T22:39:11.432Z,102652.69
2022-11-27T22:41:40.197Z,102655.73
2022-11-27T22:44:09.734Z,102641.60
2022-11-27T22:46:40.384Z,102648.84
2022-11-27T22:49:10.844Z,102644.20
2022-11-27T22:51:39.500Z,102648.73
2022-11-27T22:55:52.012Z,102647.19
2022-11-27T22:58:20.116Z,102651.88
2022-11-27T23:00:53.912Z,102650.58
2022-11-27T23:03:22.193Z,102651.74
2022-11-27T23:05:51.230Z,102651.29
2022-11-27T23:08:19.387Z,102650.03
2022-11-27T23:10:48.144Z,102654.39
2022-11-27T23:13:16.573Z,102654.97
2022-11-27T23:15:45.248Z,102651.00
2022-11-27T23:18:13.549Z,102650.55
2022-11-27T23:20:42.771Z,102638.66
2022-11-27T23:23:11.172Z,102653.20
2022-11-27T23:25:39.751Z,102655.38
2022-11-27T23:28:07.895Z,102654.34
2022-11-27T23:30:35.992Z,102653.80
2022-11-27T23:33:04.108Z,102650.70
2022-11-27T23:35:32.225Z,102649.90
2022-11-27T23:38:00.341Z,102645.21
2022-11-27T23:40:29.110Z,102640.71
2022-11-27T23:42:57.204Z,102639.98
2022-11-27T23:45:25.299Z,102640.84
2022-11-27T23:47:53.449Z,102640.34
2022-11-27T23:50:21.583Z,102641.60
2022-11-27T23:52:49.627Z,102637.09
2022-11-27T23:55:17.663Z,102635.75
2022-11-27T23:57:45.619Z,102631.85
